sensor_id;sensor_type;location;lat;lon;timestamp;P1;durP1;ratioP1;P2;durP2;ratioP2
54406;SDS011;40313;50.308;30.374;2022-12-01T09:38:50;6.50;;;5.95;;
54406;SDS011;40313;50.308;30.374;2022-12-01T09:42:24;7.22;;;5.93;;
54406;SDS011;40313;50.308;30.374;2022-12-01T09:44:51;7.05;;;5.75;;
54406;SDS011;40313;50.308;30.374;2022-12-01T09:47:22;14.80;;;7.28;;
54406;SDS011;40313;50.308;30.374;2022-12-01T09:49:54;5.78;;;5.38;;
54406;SDS011;40313;50.308;30.374;2022-12-01T09:52:24;9.65;;;8.68;;
54406;SDS011;40313;50.308;30.374;2022-12-01T09:54:52;7.80;;;7.10;;
54406;SDS011;40313;50.308;30.374;2022-12-01T09:57:25;18.67;;;8.52;;
54406;SDS011;40313;50.308;30.374;2022-12-01T09:59:54;8.63;;;6.82;;
54406;SDS011;40313;50.308;30.374;2022-12-01T10:02:25;9.10;;;7.28;;
54406;SDS011;40313;50.308;30.374;2022-12-01T10:04:58;8.45;;;6.75;;
54406;SDS011;40313;50.308;30.374;2022-12-01T10:07:28;11.98;;;7.00;;
54406;SDS011;40313;50.308;30.374;2022-12-01T10:09:58;7.22;;;6.53;;
54406;SDS011;40313;50.308;30.374;2022-12-01T10:12:30;8.63;;;7.80;;
54406;SDS011;40313;50.308;30.374;2022-12-01T10:15:01;11.95;;;10.73;;
54406;SDS011;40313;50.308;30.374;2022-12-01T10:17:42;6.35;;;5.85;;
54406;SDS011;40313;50.308;30.374;2022-12-01T10:20:18;11.13;;;6.65;;
54406;SDS011;40313;50.308;30.374;2022-12-01T10:23:05;9.45;;;8.45;;
54406;SDS011;40313;50.308;30.374;2022-12-01T10:25:42;7.90;;;7.10;;
54406;SDS011;40313;50.308;30.374;2022-12-01T10:28:33;15.85;;;5.75;;
54406;SDS011;40313;50.308;30.374;2022-12-01T10:34:55;5.07;;;3.10;;
54406;SDS011;40313;50.308;30.374;2022-12-01T10:37:23;10.85;;;5.55;;
54406;SDS011;40313;50.308;30.374;2022-12-01T10:39:52;10.27;;;3.58;;
54406;SDS011;40313;50.308;30.374;2022-12-01T10:42:24;11.27;;;5.43;;
54406;SDS011;40313;50.308;30.374;2022-12-01T10:44:54;4.68;;;4.07;;
54406;SDS011;40313;50.308;30.374;2022-12-01T10:47:25;6.65;;;4.53;;
54406;SDS011;40313;50.308;30.374;2022-12-01T10:49:54;14.18;;;6.10;;
54406;SDS011;40313;50.308;30.374;2022-12-01T10:52:32;6.85;;;4.88;;
54406;SDS011;40313;50.308;30.374;2022-12-01T10:55:01;4.07;;;3.75;;
54406;SDS011;40313;50.308;30.374;2022-12-01T10:57:30;19.67;;;4.05;;
54406;SDS011;40313;50.308;30.374;2022-12-01T10:59:58;6.18;;;4.53;;
54406;SDS011;40313;50.308;30.374;2022-12-01T11:02:27;13.57;;;4.97;;
54406;SDS011;40313;50.308;30.374;2022-12-01T11:04:58;12.02;;;5.22;;
54406;SDS011;40313;50.308;30.374;2022-12-01T11:07:26;6.15;;;4.75;;
54406;SDS011;40313;50.308;30.374;2022-12-01T11:10:00;5.18;;;3.45;;
54406;SDS011;40313;50.308;30.374;2022-12-01T11:12:42;6.28;;;5.18;;
54406;SDS011;40313;50.308;30.374;2022-12-01T11:15:19;8.80;;;3.83;;
54406;SDS011;40313;50.308;30.374;2022-12-01T11:17:47;5.95;;;4.15;;
54406;SDS011;40313;50.308;30.374;2022-12-01T11:20:30;13.73;;;6.35;;
54406;SDS011;40313;50.308;30.374;2022-12-01T14:39:51;13.32;;;10.65;;
54406;SDS011;40313;50.308;30.374;2022-12-01T14:42:23;14.38;;;9.90;;
54406;SDS011;40313;50.308;30.374;2022-12-01T14:45:14;10.55;;;9.48;;
54406;SDS011;40313;50.308;30.374;2022-12-01T14:47:44;16.58;;;11.27;;
54406;SDS011;40313;50.308;30.374;2022-12-01T14:50:17;18.25;;;10.77;;
54406;SDS011;40313;50.308;30.374;2022-12-01T14:52:49;20.02;;;9.98;;
54406;SDS011;40313;50.308;30.374;2022-12-01T14:55:22;17.38;;;11.52;;
54406;SDS011;40313;50.308;30.374;2022-12-01T14:57:52;18.15;;;11.65;;
54406;SDS011;40313;50.308;30.374;2022-12-01T15:00:28;18.00;;;10.95;;
54406;SDS011;40313;50.308;30.374;2022-12-01T15:02:56;30.40;;;14.63;;
54406;SDS011;40313;50.308;30.374;2022-12-01T15:05:25;14.15;;;10.60;;
54406;SDS011;40313;50.308;30.374;2022-12-01T15:07:54;16.85;;;10.85;;
54406;SDS011;40313;50.308;30.374;2022-12-01T15:10:24;23.20;;;11.32;;
54406;SDS011;40313;50.308;30.374;2022-12-01T15:12:53;15.52;;;11.15;;
54406;SDS011;40313;50.308;30.374;2022-12-01T15:15:20;20.40;;;12.63;;
54406;SDS011;40313;50.308;30.374;2022-12-01T15:17:48;25.98;;;12.10;;
54406;SDS011;40313;50.308;30.374;2022-12-01T15:22:28;14.35;;;11.20;;
54406;SDS011;40313;50.308;30.374;2022-12-01T15:25:04;23.38;;;11.73;;
54406;SDS011;40313;50.308;30.374;2022-12-01T15:27:33;26.48;;;11.85;;
54406;SDS011;40313;50.308;30.374;2022-12-01T15:30:00;12.77;;;9.05;;
54406;SDS011;40313;50.308;30.374;2022-12-01T15:32:28;19.55;;;10.57;;
54406;SDS011;40313;50.308;30.374;2022-12-01T15:34:57;23.35;;;10.30;;
54406;SDS011;40313;50.308;30.374;2022-12-01T15:37:32;10.82;;;8.95;;
54406;SDS011;40313;50.308;30.374;2022-12-01T15:40:07;12.27;;;8.98;;
54406;SDS011;40313;50.308;30.374;2022-12-01T15:42:37;19.48;;;9.13;;
54406;SDS011;40313;50.308;30.374;2022-12-01T15:45:15;19.50;;;9.18;;
54406;SDS011;40313;50.308;30.374;2022-12-01T15:47:43;13.93;;;9.23;;
54406;SDS011;40313;50.308;30.374;2022-12-01T15:50:25;21.10;;;9.95;;
54406;SDS011;40313;50.308;30.374;2022-12-01T15:52:54;18.67;;;11.35;;
54406;SDS011;40313;50.308;30.374;2022-12-01T15:55:24;18.13;;;10.00;;
54406;SDS011;40313;50.308;30.374;2022-12-01T16:00:33;21.45;;;10.98;;
54406;SDS011;40313;50.308;30.374;2022-12-01T16:03:00;29.15;;;14.32;;
54406;SDS011;40313;50.308;30.374;2022-12-01T16:05:28;32.33;;;14.45;;
54406;SDS011;40313;50.308;30.374;2022-12-01T16:07:57;35.75;;;15.07;;
54406;SDS011;40313;50.308;30.374;2022-12-01T16:10:25;37.90;;;14.02;;
54406;SDS011;40313;50.308;30.374;2022-12-01T16:15:54;30.55;;;13.38;;
54406;SDS011;40313;50.308;30.374;2022-12-01T16:18:23;19.27;;;13.30;;
54406;SDS011;40313;50.308;30.374;2022-12-01T16:21:00;19.55;;;12.77;;
54406;SDS011;40313;50.308;30.374;2022-12-01T16:23:28;20.65;;;13.52;;
54406;SDS011;40313;50.308;30.374;2022-12-01T16:27:59;17.27;;;11.05;;
54406;SDS011;40313;50.308;30.374;2022-12-01T16:30:26;19.52;;;11.07;;
54406;SDS011;40313;50.308;30.374;2022-12-01T16:33:04;9.48;;;8.65;;
54406;SDS011;40313;50.308;30.374;2022-12-01T23:16:28;14.48;;;10.02;;
54406;SDS011;40313;50.308;30.374;2022-12-01T23:18:55;10.80;;;9.70;;
54406;SDS011;40313;50.308;30.374;2022-12-01T23:21:22;10.75;;;7.63;;
54406;SDS011;40313;50.308;30.374;2022-12-01T23:23:48;18.98;;;10.15;;
54406;SDS011;40313;50.308;30.374;2022-12-01T23:26:15;11.27;;;8.75;;
54406;SDS011;40313;50.308;30.374;2022-12-01T23:28:41;7.65;;;6.55;;
54406;SDS011;40313;50.308;30.374;2022-12-01T23:31:08;21.55;;;8.50;;
54406;SDS011;40313;50.308;30.374;2022-12-01T23:33:36;19.20;;;8.30;;
